SÍGUENOS

APP INUMET

Disponible en Google Play

Productos aeronáuticos

  • SIGMET
  • METAR / SPECI
  • TAF
  • AIREP
  • Aviso de aeródromo
  • Pronárea
  • Carta superficie
Fecha : 18/11/2017
FTUY 01 SUMU 18 23 30
SUMU TAF 182330Z 1900/1924 31005KT 9999 SCT030 TX23/1918Z TN10/1910Z TEMPO 1908/1920 30015G25KT=
SULS TAF 182330Z 1900/1924 31005KT 9999 SCT030 TX23/1918Z TN10/1910Z TEMPO 1908/1920 30015G25KT=
SUAA TAF 182330Z 1900/1924 31005KT 9999 SCT030 TX23/1918Z TN10/1910Z TEMPO 1908/1920 30015G25KT=
SUCA TAF 182330Z 1900/1924 31005KT 9999 SCT030 TX23/1918Z TN10/1910Z TEMPO 1908/1920 30015G25KT=
SUDU TAF 182330Z 1900/1924 31005KT 9999 SCT030 TX23/1918Z TN10/1910Z TEMPO 1908/1920 30015G25KT=
SUSO TAF 182330Z 1900/1924 19015KT CAVOK TX25/1918Z TN09/1910Z BECMG 1902/1906 02005KT=
SURV TAF 182330Z 1900/1924 19015KT CAVOK TX25/1918Z TN09/1910Z BECMG 1902/1906 02005KT=

Predictor : Andrea Gimenez


Mensajes TAF vigentes - Internacionales


Argentina
TAF SAAR 181700Z 1818/1918 23015KT CAVOK TX29/1918Z TN11/1910Z BECMG 1820/1822 VRB05KT BECMG 1902/1904 34005KT BECMG 1908/1909 34010KT
TAF SACO 181700Z 1818/1918 09005KT 9999 SCT030 TX29/1918Z TN10/1910Z BECMG 1823/1903 02010KT CAVOK
TAF SAEZ 181700Z 1818/1918 27015KT 9999 SCT045 TX25/1918Z TN11/1910Z BECMG 1823/1901 32005KT BECMG 1907/1909 34010KT BECMG 1910/1912 26015KT
TAF SAME 181700Z 1818/1918 14005KT CAVOK TX28/1820Z TN10/1910Z
TAF SABE 181700Z 1818/1918 26010KT 9999 SCT045 TX24/1918Z TN14/1910Z BECMG 1823/1901 30010KT BECMG 1905/1907 34010KT BECMG 1909/1910 34015G25KT BECMG 1911/1912 26015KT
Bolivia
TAF SLLP 181600Z 1818/1918 13008KT FEW020 FEW023CB TX19/1820Z TN03/ 1910Z TEMPO 1819/1822 32014KT 8000 VCSH BECMG 1823/1902 07004KT 9999 NSW FEW017 TEMPO 1906/1910 4000E VCFG FEW002 SCT013
Brasil
TAF SBSP 181613Z 1818/1918 33013KT 9999 SCT040 FEW045TCU TX31/1818Z TN19/1908Z PROB40 1818/1901 26010KT 9999 TSRA SCT025 FEW045CB PROB30 1901/1905 8000 RA BKN020 PROB40 1905/1913 29010KT 6000 TSRA BKN015 FEW045CB BECMG 1913/1915 16008KT 9999 BKN022 PROB30 1915/1918 22008KT 8000 TSRA BKN017 FEW040CB RMK PGO
TAF SBGR 181613Z 1818/1924 33013KT 9999 SCT040 FEW045TCU TX32/1818Z TN18/1908Z PROB40 1818/1901 30010KT 9999 TSRA SCT020 FEW045CB PROB30 1901/1905 8000 RA BKN020 PROB40 1905/1913 29010KT 6000 TSRA BKN018 FEW045CB BECMG 1913/1915 16010KT 9999 BKN020 PROB30 1915/1921 22008KT 8000 TSRA BKN017 FEW040CB PROB30 1921/1924 6000 RA BKN013 RMK PGO
TAF SBPA 181515Z 1818/1918 16009KT 9999 SCT030 TX26/1818Z TN15/1908Z BECMG 1822/1824 BKN035 BECMG 1904/1906 10004KT CAVOK RMK PDW
TAF SBFL 181515Z 1818/1918 36008KT 9999 SCT015 TN19/1906Z TX23/1918Z BECMG 1820/1822 18012KT BKN020 BECMG 1912/1914 15007KT SCT025 RMK PDW
TAF SBFI 181515Z 1818/1918 20007KT 9999 SCT015 TN15/1909Z TX30/1918Z BECMG 1820/1822 CAVOK RMK PDW
TAF SBRJ 181400Z 1818/1906 15012KT 9999 FEW025TX30/1818Z TN22/1905ZTEMPO 1822/1823 5000 TSRA SCT025 FEW030CB BECMG 1823/1901 08004KT BKN020 BECMG 1904/1906 30003KT FEW030 RMK PGX
TAF SBBR 181400Z 1818/1918 30009KT 9999 FEW040TCU TX25/1818Z TN19/191 0Z PROB40 1818/1822 30013G23KT 4000 TSRA BKN015 FEW035CB BECMG 1904/1906 31005KT 9999 FEW015 BECMG 1913/1915 35009KT 9999 BKN035 FEW040TCU RMK PDC
Chile
TAF SCCI 181628Z 1818/1918 23030G40KT 8000 -SHRA SCT023 TN02/1910Z TX07/1918Z TEMPO 1818/1900 23040G50KT 4000 SHRASN SHRA BKN018TCU BECMG 1901/1903 25025G35KT 9000 SCT030 BECMG 1910/1912 FEW030 BKN040 BECMG 1912/1914 25030G40KT BECMG 1915/1917 SCT030 TEMPO 1915/1918 24035G45KT 7000 -SHRA BKN020
TAF SCEL 181610Z 1818/1918 19009KT CAVOK TX28/1819Z TN11/1910Z BECMG 1820/1822 21014KT BECMG 1902/1904 16004KT TEMPO 1908/1913 VRB02KT 7000 NSC BECMG 1914/1916 19006KT
Ecuador
SEQM 181630Z 1818/1918 36015KT 9999 SCT030 SCT300 FM190000 03004KT 9999 SCT010 FM191200 VRB03KT 9999 FEW030 SCT300 TX25/1819Z TN06/1911Z
EEUU
KLGA 182132Z 1822/1918 21009KT 6SM -SHRA BR BKN050 OVC070 TEMPO 1822/1823 3SM SHRA FM190200 21016G25KT 4SM -SHRA BR SCT015 BKN025 OVC050 FM190700 21022G35KT 3SM SHRA BR SCT007 BKN015 OVC035 FM191200 24026G40KT 5SM -SHRA BR SCT008 BKN020 FM191500 29028G39KT P6SM BKN030
KJFK 182124Z 1821/1924 20019G28KT 6SM -SHRA BR SCT030 BKN050 OVC070 TEMPO 1821/1823 3SM SHRA FM190200 20020G30KT 4SM -SHRA BR SCT015 BKN030 OVC050 FM190700 21022G35KT 3SM SHRA BR SCT007 BKN015 OVC035 FM191200 24026G40KT 5SM -SHRA BR SCT008 BKN020 FM191500 29028G39KT P6SM BKN030 FM191700 28024G34KT P6SM SCT030 BKN050 FM192300 29019G30KT P6SM SCT050
KIAD 182101Z 1821/1924 17010G18KT P6SM BKN090 OVC200 FM190000 19015G26KT P6SM SCT040 OVC200 FM190500 19018G31KT P6SM -SHRA SCT035 OVC080 FM190800 23017G29KT 6SM -SHRA SCT025 OVC045 FM191100 29020G35KT P6SM SCT040 BKN150
KDCA 182101Z 1821/1918 19010G18KT P6SM BKN100 OVC200 FM190100 20015G27KT P6SM SCT040 OVC200 FM190500 20016G30KT 6SM -SHRA SCT035 OVC100 FM191000 25016G28KT 6SM -SHRA SCT035 OVC045 FM191200 28019G34KT P6SM SCT040 BKN150
KMIA 182058Z 1821/1924 09008KT P6SM SCT040 FM182300 VRB03KT P6SM SKC FM191500 28008KT P6SM FEW040
Francia
TAF LFPO 181700Z 1818/1924 23006KT 9999 BKN040 PROB30 TEMPO 1821/1823 -RA BKN012 BECMG 1823/1902 -RA BKN012 TEMPO 1901/1905 2500 -DZRA OVC004 BECMG 1905/1908 34006KT NSW BKN020 BECMG 1911/1913 SCT030 BECMG 1915/1918 CAVOK
Paraguay
TAF SGAS 181530Z 1818/1918 17015KT CAVOK TX29/1818Z TN14/1909Z
Venezuela
SVMI 181600Z 1818/1918 05007KT 9999 SCT016 TX34/18Z TN25/09Z TEMPO 1820/1900 05012KT VCDZ SCT0160 SCT100 FM190100 00000KT 9999 FEW016

* Datos extraidos del Text DataServer de la NOAA (NOAA TEXT DATA SERVER)

Instituto Uruguayo de Meteorología

Dr. Javier Barrios Amorín 1488 - CP 11200
Mesa Central (598) 1895 - Desde el interior 21895

Montevideo - Uruguay